Time;durP1;ratioP1;P1;durP2;ratioP2;P2;SDS_P1;SDS_P2;PMS_P1;PMS_P2;Temp;Humidity;BMP_temperature;BMP_pressure;BME280_temperature;BME280_humidity;BME280_pressure;Samples;Min_cycle;Max_cycle;Signal;HPM_P1;HPM_P2
2021/04/15 00:00:53;;;;;;;1.88;1.30;;;;;;;;;;5036307;28;20198;-41
2021/04/15 00:03:21;;;;;;;1.23;1.13;;;;;;;;;;5031160;28;20234;-41
2021/04/15 00:05:47;;;;;;;1.50;1.40;;;;;;;;;;5035246;28;20175;-41
2021/04/15 00:08:14;;;;;;;1.30;1.20;;;;;;;;;;5036239;28;20204;-41
2021/04/15 00:10:42;;;;;;;1.33;1.23;;;;;;;;;;5032792;28;20183;-41
2021/04/15 00:13:17;;;;;;;1.42;1.27;;;;;;;;;;5036717;28;20183;-41
2021/04/15 00:15:43;;;;;;;1.45;1.25;;;;;;;;;;5024808;28;20237;-41
2021/04/15 00:18:09;;;;;;;2.03;1.33;;;;;;;;;;5016517;28;20461;-41
2021/04/15 00:20:35;;;;;;;1.30;1.20;;;;;;;;;;5017148;28;20172;-41
2021/04/15 00:23:01;;;;;;;1.70;1.50;;;;;;;;;;5032155;28;20188;-41
2021/04/15 00:25:27;;;;;;;1.75;1.60;;;;;;;;;;5028186;28;20176;-41
2021/04/15 00:27:54;;;;;;;1.30;1.20;;;;;;;;;;5042329;28;20542;-41
2021/04/15 00:30:21;;;;;;;1.52;1.42;;;;;;;;;;5024085;28;20548;-41
2021/04/15 00:32:47;;;;;;;1.25;1.10;;;;;;;;;;5030000;28;20191;-41
2021/04/15 00:35:14;;;;;;;1.45;1.35;;;;;;;;;;5018336;28;20274;-41
2021/04/15 00:37:40;;;;;;;1.50;1.40;;;;;;;;;;5017691;28;20578;-41
2021/04/15 00:40:07;;;;;;;1.30;1.30;;;;;;;;;;5027204;28;20459;-41
2021/04/15 00:42:33;;;;;;;1.85;1.30;;;;;;;;;;5035642;28;20164;-41
2021/04/15 00:45:05;;;;;;;1.83;1.50;;;;;;;;;;5036241;28;20164;-41
2021/04/15 00:47:31;;;;;;;1.08;0.98;;;;;;;;;;5020502;28;20180;-41
2021/04/15 00:49:59;;;;;;;1.48;1.38;;;;;;;;;;5016294;28;20702;-41
2021/04/15 00:52:26;;;;;;;1.23;1.20;;;;;;;;;;5018215;28;20216;-41
2021/04/15 00:54:54;;;;;;;1.30;1.20;;;;;;;;;;5025443;28;20444;-41
2021/04/15 00:57:31;;;;;;;1.50;1.20;;;;;;;;;;5049544;28;20175;-41
2021/04/15 00:59:58;;;;;;;1.10;1.00;;;;;;;;;;5053215;28;20195;-41
2021/04/15 01:02:24;;;;;;;1.60;1.50;;;;;;;;;;5034552;28;20518;-41
2021/04/15 01:04:53;;;;;;;1.30;1.20;;;;;;;;;;5031740;28;20207;-41
2021/04/15 01:07:19;;;;;;;1.50;1.40;;;;;;;;;;5035323;28;20480;-41
2021/04/15 01:09:47;;;;;;;1.08;1.00;;;;;;;;;;5029947;28;20172;-41
2021/04/15 01:12:16;;;;;;;1.17;1.08;;;;;;;;;;5017078;28;20172;-41
2021/04/15 01:14:42;;;;;;;1.17;1.10;;;;;;;;;;5035320;28;20168;-41
2021/04/15 01:17:29;;;;;;;1.13;1.10;;;;;;;;;;5017855;28;20181;-41
2021/04/15 01:20:09;;;;;;;1.30;1.20;;;;;;;;;;5022234;28;20510;-41
2021/04/15 01:22:35;;;;;;;1.48;1.20;;;;;;;;;;5034409;28;20494;-41
2021/04/15 01:25:13;;;;;;;1.60;1.38;;;;;;;;;;5028227;28;20635;-41
2021/04/15 01:27:45;;;;;;;1.30;1.20;;;;;;;;;;5031678;28;20597;-41
2021/04/15 01:30:11;;;;;;;1.73;1.40;;;;;;;;;;5021292;28;20187;-41
2021/04/15 01:32:57;;;;;;;1.48;1.38;;;;;;;;;;5015066;28;20192;-41
2021/04/15 01:35:29;;;;;;;1.20;1.10;;;;;;;;;;5018545;28;20564;-41
2021/04/15 01:38:10;;;;;;;1.10;1.00;;;;;;;;;;5033435;28;20207;-41
2021/04/15 01:40:42;;;;;;;1.20;1.10;;;;;;;;;;5026409;28;20184;-41
2021/04/15 01:43:13;;;;;;;1.38;1.27;;;;;;;;;;5016389;28;20185;-41
2021/04/15 01:45:39;;;;;;;1.30;1.20;;;;;;;;;;5019838;28;20172;-41
2021/04/15 01:48:09;;;;;;;1.40;1.30;;;;;;;;;;5034309;28;20630;-41
2021/04/15 01:50:38;;;;;;;1.52;0.95;;;;;;;;;;5033159;28;20582;-41
2021/04/15 01:53:25;;;;;;;1.20;1.20;;;;;;;;;;5032109;28;20256;-41
2021/04/15 01:55:56;;;;;;;2.08;1.33;;;;;;;;;;5024074;28;20264;-41
2021/04/15 01:58:26;;;;;;;1.30;1.20;;;;;;;;;;5016247;28;20214;-41
2021/04/15 02:00:56;;;;;;;0.98;0.98;;;;;;;;;;5027828;28;20200;-41
2021/04/15 02:03:29;;;;;;;1.38;1.27;;;;;;;;;;5032450;28;20176;-41
2021/04/15 02:05:58;;;;;;;1.25;1.10;;;;;;;;;;5016455;28;20195;-41
2021/04/15 02:08:25;;;;;;;1.38;1.27;;;;;;;;;;5034403;28;20175;-41
2021/04/15 02:10:54;;;;;;;1.60;1.50;;;;;;;;;;5030631;28;20589;-41
2021/04/15 02:13:21;;;;;;;1.40;1.30;;;;;;;;;;5015521;28;20184;-41
2021/04/15 02:15:50;;;;;;;1.30;1.20;;;;;;;;;;5025526;28;20230;-41
2021/04/15 02:18:23;;;;;;;1.38;1.27;;;;;;;;;;5014870;28;20184;-41
2021/04/15 02:20:50;;;;;;;1.38;1.27;;;;;;;;;;5014456;28;20184;-41
2021/04/15 02:23:28;;;;;;;1.20;1.10;;;;;;;;;;5026672;28;20466;-41
2021/04/15 02:26:04;;;;;;;1.15;1.10;;;;;;;;;;5029517;28;20185;-41
2021/04/15 02:28:33;;;;;;;1.10;1.10;;;;;;;;;;5034546;28;20433;-41
2021/04/15 02:31:10;;;;;;;2.08;1.23;;;;;;;;;;5033894;28;20211;-41
2021/04/15 02:33:36;;;;;;;1.08;1.08;;;;;;;;;;5021839;28;20559;-41
2021/04/15 02:36:03;;;;;;;1.35;1.20;;;;;;;;;;5025342;28;20218;-41
2021/04/15 02:38:31;;;;;;;1.00;1.00;;;;;;;;;;5028564;28;20258;-40
2021/04/15 02:41:00;;;;;;;1.35;1.25;;;;;;;;;;5026842;28;20194;-41
2021/04/15 02:43:48;;;;;;;1.20;1.10;;;;;;;;;;5015574;28;20235;-40
2021/04/15 02:46:20;;;;;;;1.13;1.02;;;;;;;;;;5017218;28;20226;-41
2021/04/15 02:48:48;;;;;;;1.00;1.00;;;;;;;;;;5014411;28;20226;-41
2021/04/15 02:51:16;;;;;;;1.30;1.20;;;;;;;;;;5015659;28;20196;-41
2021/04/15 02:53:49;;;;;;;1.25;1.15;;;;;;;;;;5021810;28;20225;-41
2021/04/15 02:56:26;;;;;;;1.33;1.23;;;;;;;;;;5018587;28;20191;-41
2021/04/15 02:58:56;;;;;;;1.23;1.08;;;;;;;;;;5014484;28;20200;-41
2021/04/15 03:01:25;;;;;;;1.15;1.02;;;;;;;;;;5015729;28;20594;-41
2021/04/15 03:03:52;;;;;;;1.10;1.10;;;;;;;;;;5016419;28;20176;-41
2021/04/15 03:06:31;;;;;;;1.08;1.05;;;;;;;;;;5020327;28;20180;-40
2021/04/15 03:09:04;;;;;;;1.40;1.30;;;;;;;;;;5025333;28;20554;-40
2021/04/15 03:11:39;;;;;;;1.45;1.30;;;;;;;;;;5024153;28;20192;-41
2021/04/15 03:14:08;;;;;;;1.10;1.00;;;;;;;;;;5018322;28;20172;-41
2021/04/15 03:16:36;;;;;;;1.35;1.20;;;;;;;;;;5028978;28;20489;-41
2021/04/15 03:19:09;;;;;;;1.30;1.20;;;;;;;;;;5037544;28;20215;-41
2021/04/15 03:21:35;;;;;;;1.10;1.00;;;;;;;;;;5036671;28;20570;-41
2021/04/15 03:24:08;;;;;;;1.10;1.10;;;;;;;;;;5026398;28;20176;-41
2021/04/15 03:26:53;;;;;;;1.42;1.20;;;;;;;;;;5019459;28;20185;-41
2021/04/15 03:29:42;;;;;;;1.33;1.23;;;;;;;;;;5017762;28;20176;-40
2021/04/15 03:32:13;;;;;;;1.20;1.10;;;;;;;;;;5025788;28;20195;-41
2021/04/15 03:34:48;;;;;;;1.40;1.30;;;;;;;;;;5046139;28;20455;-41
2021/04/15 03:37:18;;;;;;;1.10;1.10;;;;;;;;;;5028552;28;20207;-41
2021/04/15 03:39:45;;;;;;;1.20;1.10;;;;;;;;;;5031843;28;20567;-41
2021/04/15 03:42:17;;;;;;;1.30;1.20;;;;;;;;;;5019663;28;20439;-41
2021/04/15 03:44:46;;;;;;;1.40;1.30;;;;;;;;;;5017357;28;20207;-41
2021/04/15 03:47:12;;;;;;;1.35;1.20;;;;;;;;;;5019719;28;20328;-40
2021/04/15 03:49:42;;;;;;;1.30;0.90;;;;;;;;;;5017493;28;20291;-41
2021/04/15 03:52:29;;;;;;;1.15;1.13;;;;;;;;;;5030707;28;20180;-41
2021/04/15 03:55:00;;;;;;;1.30;1.20;;;;;;;;;;5029973;28;20180;-41
2021/04/15 03:57:27;;;;;;;1.30;1.20;;;;;;;;;;5032295;28;20202;-41
2021/04/15 03:59:55;;;;;;;1.33;1.23;;;;;;;;;;5027148;28;20191;-41
2021/04/15 04:02:26;;;;;;;1.40;1.30;;;;;;;;;;5030433;28;20621;-41
2021/04/15 04:04:54;;;;;;;1.20;1.10;;;;;;;;;;5036063;28;20172;-41
2021/04/15 04:07:34;;;;;;;1.35;1.25;;;;;;;;;;5020450;28;20196;-40
2021/04/15 04:10:02;;;;;;;1.00;1.00;;;;;;;;;;5023634;28;20182;-41
2021/04/15 04:12:34;;;;;;;1.35;1.27;;;;;;;;;;5034979;28;20180;-41
2021/04/15 04:15:05;;;;;;;1.00;1.00;;;;;;;;;;5018538;28;20559;-41
2021/04/15 04:17:34;;;;;;;1.10;1.00;;;;;;;;;;5033767;28;20186;-41
2021/04/15 04:20:01;;;;;;;1.30;1.20;;;;;;;;;;5035937;28;20175;-40
2021/04/15 04:22:30;;;;;;;0.85;0.85;;;;;;;;;;5035792;28;20232;-41
2021/04/15 04:24:59;;;;;;;1.20;1.10;;;;;;;;;;5029864;28;20176;-41
2021/04/15 04:27:32;;;;;;;1.15;1.08;;;;;;;;;;5020515;28;20450;-41
2021/04/15 04:30:10;;;;;;;1.20;1.10;;;;;;;;;;5036392;28;20181;-41
2021/04/15 04:32:36;;;;;;;1.13;1.10;;;;;;;;;;5021741;28;20183;-41
2021/04/15 04:35:05;;;;;;;1.25;1.17;;;;;;;;;;5016989;28;20627;-41
2021/04/15 04:37:37;;;;;;;1.20;1.13;;;;;;;;;;5016480;28;20199;-41
2021/04/15 04:40:05;;;;;;;1.23;1.00;;;;;;;;;;5023264;28;20206;-40
2021/04/15 04:42:43;;;;;;;1.25;1.15;;;;;;;;;;5031879;28;20176;-41
2021/04/15 04:45:09;;;;;;;1.23;1.10;;;;;;;;;;5036215;28;20214;-41
2021/04/15 04:47:38;;;;;;;1.30;1.20;;;;;;;;;;5029475;28;20176;-40
2021/04/15 04:50:07;;;;;;;1.42;1.33;;;;;;;;;;5036001;28;20203;-40
2021/04/15 04:52:34;;;;;;;1.23;1.13;;;;;;;;;;5035388;28;20431;-40
2021/04/15 04:55:00;;;;;;;1.30;1.20;;;;;;;;;;5024033;28;20241;-41
2021/04/15 04:57:32;;;;;;;0.80;0.80;;;;;;;;;;5018423;28;20227;-41
2021/04/15 05:00:06;;;;;;;1.27;1.17;;;;;;;;;;5015915;28;20169;-41
2021/04/15 05:02:32;;;;;;;1.17;1.10;;;;;;;;;;5014275;28;20215;-41
2021/04/15 05:05:03;;;;;;;1.25;1.15;;;;;;;;;;5032066;28;20183;-41
2021/04/15 05:07:32;;;;;;;1.15;1.10;;;;;;;;;;5036585;28;20214;-41
2021/04/15 05:09:58;;;;;;;1.40;1.30;;;;;;;;;;5009688;28;20592;-41
2021/04/15 05:12:32;;;;;;;1.13;1.08;;;;;;;;;;5015113;28;20230;-40
2021/04/15 05:14:58;;;;;;;1.27;1.17;;;;;;;;;;5036461;28;20434;-41
2021/04/15 05:17:24;;;;;;;1.55;1.38;;;;;;;;;;5037724;28;20225;-41
2021/04/15 05:19:51;;;;;;;1.30;1.20;;;;;;;;;;5054232;28;20502;-41
2021/04/15 05:22:32;;;;;;;1.30;1.20;;;;;;;;;;5028751;28;20180;-41
2021/04/15 05:25:04;;;;;;;1.15;1.10;;;;;;;;;;5023259;28;20179;-41
2021/04/15 05:27:32;;;;;;;1.30;1.20;;;;;;;;;;5015067;28;20168;-40
2021/04/15 05:30:07;;;;;;;1.42;1.15;;;;;;;;;;5030569;28;20179;-41
2021/04/15 05:32:34;;;;;;;1.30;1.20;;;;;;;;;;5016741;28;20263;-41
2021/04/15 05:35:00;;;;;;;0.93;0.93;;;;;;;;;;5023233;28;20180;-41
2021/04/15 05:37:29;;;;;;;1.08;1.05;;;;;;;;;;5030063;28;20192;-41
2021/04/15 05:39:56;;;;;;;1.30;0.95;;;;;;;;;;5021924;28;20175;-41
2021/04/15 05:42:42;;;;;;;1.20;1.10;;;;;;;;;;5014789;28;20180;-41
2021/04/15 05:45:23;;;;;;;2.10;1.20;;;;;;;;;;5014188;28;20172;-41
2021/04/15 05:48:10;;;;;;;1.10;1.10;;;;;;;;;;5029972;28;20182;-43
2021/04/15 05:50:45;;;;;;;1.75;1.40;;;;;;;;;;5033877;28;20194;-41
2021/04/15 05:53:14;;;;;;;4.07;1.48;;;;;;;;;;5030478;28;20225;-40
2021/04/15 05:55:46;;;;;;;1.55;1.20;;;;;;;;;;5021337;28;20185;-43
2021/04/15 05:58:24;;;;;;;1.50;1.20;;;;;;;;;;5015065;28;20192;-41
2021/04/15 06:00:57;;;;;;;1.40;1.30;;;;;;;;;;5022304;28;20195;-42
2021/04/15 06:03:26;;;;;;;2.78;1.50;;;;;;;;;;5034452;28;20184;-43
2021/04/15 06:05:58;;;;;;;1.67;1.52;;;;;;;;;;5029978;28;20188;-43
2021/04/15 06:08:25;;;;;;;7.00;1.63;;;;;;;;;;5014946;28;20199;-44
2021/04/15 06:10:55;;;;;;;3.22;1.38;;;;;;;;;;5030170;28;20189;-48
2021/04/15 06:13:41;;;;;;;3.22;1.35;;;;;;;;;;5024416;28;20194;-45
2021/04/15 06:16:10;;;;;;;2.58;1.23;;;;;;;;;;5027571;28;20275;-43
2021/04/15 06:18:39;;;;;;;2.28;1.20;;;;;;;;;;5014407;28;20199;-44
2021/04/15 06:21:18;;;;;;;3.58;1.10;;;;;;;;;;5024018;28;20183;-43
2021/04/15 06:23:47;;;;;;;1.77;1.50;;;;;;;;;;5023940;28;20176;-43
2021/04/15 06:26:22;;;;;;;2.10;1.48;;;;;;;;;;5026269;28;20258;-44
2021/04/15 06:28:49;;;;;;;3.20;1.30;;;;;;;;;;5021067;28;20176;-44
2021/04/15 06:31:21;;;;;;;4.20;1.40;;;;;;;;;;5013942;28;20230;-44
2021/04/15 06:33:47;;;;;;;2.25;1.55;;;;;;;;;;5015651;28;20185;-44
2021/04/15 06:36:27;;;;;;;2.63;1.13;;;;;;;;;;5018975;28;20188;-44
2021/04/15 06:39:11;;;;;;;2.70;1.38;;;;;;;;;;5036574;28;20328;-44
2021/04/15 06:41:43;;;;;;;1.50;1.40;;;;;;;;;;5035871;28;20188;-44
2021/04/15 06:44:28;;;;;;;1.50;1.40;;;;;;;;;;5014631;28;20411;-44
2021/04/15 06:47:04;;;;;;;2.10;1.63;;;;;;;;;;5028441;28;20226;-44
2021/04/15 06:49:49;;;;;;;1.50;1.27;;;;;;;;;;5027254;28;20196;-44
2021/04/15 06:52:31;;;;;;;2.88;1.70;;;;;;;;;;5036215;28;20223;-43
2021/04/15 06:55:23;;;;;;;4.55;1.95;;;;;;;;;;5025234;28;20187;-43
2021/04/15 06:57:58;;;;;;;1.83;1.63;;;;;;;;;;5019579;28;20290;-43
2021/04/15 07:00:31;;;;;;;2.13;1.38;;;;;;;;;;5019837;28;20196;-45
2021/04/15 07:03:03;;;;;;;3.03;1.55;;;;;;;;;;5020295;28;20179;-43
2021/04/15 07:05:36;;;;;;;2.50;1.60;;;;;;;;;;5034602;28;20180;-44
2021/04/15 07:08:08;;;;;;;3.70;1.80;;;;;;;;;;5036262;28;20551;-43
2021/04/15 07:10:52;;;;;;;4.95;2.28;;;;;;;;;;5036537;28;20263;-45
2021/04/15 07:13:39;;;;;;;4.18;1.73;;;;;;;;;;5037775;28;20168;-44
2021/04/15 07:16:18;;;;;;;3.80;1.67;;;;;;;;;;5021221;28;20187;-43
2021/04/15 07:19:02;;;;;;;6.10;1.80;;;;;;;;;;5018085;28;20196;-42
2021/04/15 07:21:47;;;;;;;6.00;2.67;;;;;;;;;;5017493;28;20191;-42
2021/04/15 07:24:30;;;;;;;5.05;2.33;;;;;;;;;;5029571;28;20187;-43
2021/04/15 07:27:02;;;;;;;3.50;1.70;;;;;;;;;;5037524;28;20176;-42
2021/04/15 07:29:28;;;;;;;4.20;1.90;;;;;;;;;;5034870;28;20172;-41
2021/04/15 07:32:06;;;;;;;6.63;1.50;;;;;;;;;;5029185;28;20189;-43
2021/04/15 07:34:36;;;;;;;3.90;1.60;;;;;;;;;;5022033;28;20199;-44
2021/04/15 07:37:08;;;;;;;4.82;1.50;;;;;;;;;;5046286;28;20207;-41
2021/04/15 07:39:53;;;;;;;6.03;1.83;;;;;;;;;;5057221;28;20240;-43
2021/04/15 07:42:19;;;;;;;1.85;1.55;;;;;;;;;;5056756;28;20191;-42
2021/04/15 07:44:47;;;;;;;3.08;1.63;;;;;;;;;;5056993;28;20199;-44
2021/04/15 07:47:23;;;;;;;2.72;1.35;;;;;;;;;;5043941;28;20184;-45
2021/04/15 07:49:58;;;;;;;3.40;1.90;;;;;;;;;;5038810;28;20176;-41
2021/04/15 07:52:43;;;;;;;3.38;1.80;;;;;;;;;;5036328;28;20183;-43
2021/04/15 07:55:09;;;;;;;2.17;1.70;;;;;;;;;;5037040;28;20176;-43
2021/04/15 07:57:49;;;;;;;3.35;1.35;;;;;;;;;;5035708;28;20294;-42
2021/04/15 08:00:33;;;;;;;2.20;1.73;;;;;;;;;;5017077;28;20181;-41
2021/04/15 08:03:18;;;;;;;3.65;1.60;;;;;;;;;;5016968;28;20252;-41
2021/04/15 08:05:46;;;;;;;5.25;1.75;;;;;;;;;;5034537;28;20255;-41
2021/04/15 08:08:13;;;;;;;3.03;1.80;;;;;;;;;;5036639;28;20570;-43
2021/04/15 08:10:59;;;;;;;5.45;1.65;;;;;;;;;;5036123;28;20176;-42
2021/04/15 08:13:35;;;;;;;2.63;1.60;;;;;;;;;;4987073;28;20520;-43
2021/04/15 08:16:13;;;;;;;2.30;1.75;;;;;;;;;;5036609;28;20179;-44
2021/04/15 08:18:58;;;;;;;2.58;1.85;;;;;;;;;;5035976;28;20215;-42
2021/04/15 08:21:43;;;;;;;4.63;1.95;;;;;;;;;;5035646;28;20255;-43
2021/04/15 08:24:12;;;;;;;3.85;1.70;;;;;;;;;;5038025;28;20189;-44
2021/04/15 08:26:44;;;;;;;2.63;1.80;;;;;;;;;;5056458;28;20175;-41
2021/04/15 08:29:16;;;;;;;3.05;1.50;;;;;;;;;;5041656;28;20187;-42
2021/04/15 08:31:49;;;;;;;8.00;1.65;;;;;;;;;;5029455;28;20182;-40
2021/04/15 08:34:26;;;;;;;6.97;2.10;;;;;;;;;;5020370;28;20185;-41
2021/04/15 08:36:59;;;;;;;4.03;1.95;;;;;;;;;;5016445;28;20192;-40
2021/04/15 08:39:31;;;;;;;2.05;1.80;;;;;;;;;;5017297;28;20215;-42
2021/04/15 08:42:06;;;;;;;2.83;1.75;;;;;;;;;;5027752;28;20642;-45
2021/04/15 08:44:33;;;;;;;1.40;1.30;;;;;;;;;;5031689;28;20179;-43
2021/04/15 08:47:05;;;;;;;2.78;1.70;;;;;;;;;;5023253;28;20210;-41
2021/04/15 08:49:36;;;;;;;2.75;1.88;;;;;;;;;;5021141;28;20690;-41
2021/04/15 08:52:15;;;;;;;2.50;1.50;;;;;;;;;;5031114;28;20270;-40
2021/04/15 08:54:41;;;;;;;4.00;1.90;;;;;;;;;;5025356;28;20168;-41
2021/04/15 08:57:10;;;;;;;5.55;2.03;;;;;;;;;;5020312;28;20248;-43
2021/04/15 08:59:36;;;;;;;4.47;1.73;;;;;;;;;;5022441;28;20575;-41
2021/04/15 09:02:09;;;;;;;2.88;1.60;;;;;;;;;;5028439;28;20204;-42
2021/04/15 09:04:58;;;;;;;2.60;1.60;;;;;;;;;;5017511;28;20552;-41
2021/04/15 09:07:30;;;;;;;4.03;1.73;;;;;;;;;;5027680;28;20183;-40
2021/04/15 09:10:15;;;;;;;4.75;1.77;;;;;;;;;;5017115;28;20188;-41
2021/04/15 09:12:53;;;;;;;7.70;1.83;;;;;;;;;;5027026;28;20225;-42
2021/04/15 09:15:19;;;;;;;5.72;1.63;;;;;;;;;;5035140;28;20450;-44
2021/04/15 09:17:48;;;;;;;6.53;2.03;;;;;;;;;;5025538;28;20168;-41
2021/04/15 09:20:20;;;;;;;9.63;1.50;;;;;;;;;;5015659;28;20258;-46
2021/04/15 09:23:02;;;;;;;3.70;1.73;;;;;;;;;;5021809;28;20270;-45
2021/04/15 09:25:28;;;;;;;3.30;1.80;;;;;;;;;;5022902;28;20276;-45
2021/04/15 09:28:12;;;;;;;9.70;1.90;;;;;;;;;;5023964;28;20263;-44
2021/04/15 09:30:53;;;;;;;3.47;1.30;;;;;;;;;;5026293;28;20194;-44
2021/04/15 09:33:38;;;;;;;7.22;1.50;;;;;;;;;;5030653;28;20263;-43
2021/04/15 09:36:13;;;;;;;2.90;1.40;;;;;;;;;;5030899;28;20343;-45
2021/04/15 09:38:57;;;;;;;2.20;1.40;;;;;;;;;;5028315;28;20198;-42
2021/04/15 09:41:24;;;;;;;3.28;1.55;;;;;;;;;;5019957;28;20232;-41
2021/04/15 09:44:08;;;;;;;3.42;1.30;;;;;;;;;;5031379;28;20211;-43
2021/04/15 09:46:53;;;;;;;5.47;1.33;;;;;;;;;;5029337;28;20440;-44
2021/04/15 09:49:19;;;;;;;6.80;1.38;;;;;;;;;;5015280;28;20263;-44
2021/04/15 09:52:04;;;;;;;4.13;1.60;;;;;;;;;;5016150;28;20267;-43
2021/04/15 09:54:36;;;;;;;2.13;1.30;;;;;;;;;;5037913;28;20179;-43
2021/04/15 09:57:11;;;;;;;3.60;1.70;;;;;;;;;;5049450;28;20176;-42
2021/04/15 09:59:49;;;;;;;7.38;1.95;;;;;;;;;;5034455;28;20221;-42
2021/04/15 10:02:23;;;;;;;3.15;1.52;;;;;;;;;;5020156;28;20204;-45
2021/04/15 10:04:51;;;;;;;2.38;1.52;;;;;;;;;;5015054;28;20673;-44
2021/04/15 10:07:21;;;;;;;7.40;1.70;;;;;;;;;;5028958;28;20192;-45
2021/04/15 10:10:02;;;;;;;4.03;1.85;;;;;;;;;;5031102;28;20183;-43
2021/04/15 10:12:29;;;;;;;6.25;2.72;;;;;;;;;;5038158;28;20191;-43
2021/04/15 10:14:55;;;;;;;12.10;3.97;;;;;;;;;;5048496;28;20301;-42
2021/04/15 10:17:21;;;;;;;15.15;4.35;;;;;;;;;;5019746;28;20188;-43
2021/04/15 10:19:56;;;;;;;18.83;4.95;;;;;;;;;;5032222;28;20214;-44
2021/04/15 10:22:40;;;;;;;18.00;5.15;;;;;;;;;;5017651;28;20226;-44
2021/04/15 10:25:11;;;;;;;21.85;5.07;;;;;;;;;;5021574;28;20488;-44
2021/04/15 10:27:55;;;;;;;18.77;5.15;;;;;;;;;;5034220;28;20240;-44
2021/04/15 10:30:21;;;;;;;17.77;4.75;;;;;;;;;;5013920;28;20176;-44
2021/04/15 10:32:53;;;;;;;16.70;4.63;;;;;;;;;;5022617;28;20187;-44
2021/04/15 10:35:29;;;;;;;15.18;4.18;;;;;;;;;;5030592;28;20488;-43
2021/04/15 10:37:58;;;;;;;12.43;3.95;;;;;;;;;;5030186;28;20579;-45
2021/04/15 10:40:54;;;;;;;13.38;4.70;;;;;;;;;;5027066;28;20203;-47
2021/04/15 10:43:34;;;;;;;12.27;4.13;;;;;;;;;;4928542;28;20192;-45
2021/04/15 10:46:24;;;;;;;12.75;4.00;;;;;;;;;;5017560;28;20180;-43
2021/04/15 10:48:55;;;;;;;13.55;4.28;;;;;;;;;;5025571;28;20835;-42
2021/04/15 10:51:35;;;;;;;11.95;4.05;;;;;;;;;;5018730;28;20172;-42
2021/04/15 10:54:03;;;;;;;12.88;3.92;;;;;;;;;;5027468;28;20184;-44
2021/04/15 10:56:29;;;;;;;12.75;4.07;;;;;;;;;;5021920;28;20180;-45
2021/04/15 10:59:06;;;;;;;11.88;4.10;;;;;;;;;;5035324;28;20203;-44
2021/04/15 11:01:32;;;;;;;8.70;3.67;;;;;;;;;;5029398;28;20290;-44
2021/04/15 11:03:59;;;;;;;10.48;3.67;;;;;;;;;;5033545;28;20172;-45
2021/04/15 11:06:49;;;;;;;15.63;3.90;;;;;;;;;;5032389;28;20187;-45
2021/04/15 11:09:15;;;;;;;12.20;4.10;;;;;;;;;;5021272;28;20200;-46
2021/04/15 11:11:51;;;;;;;11.50;3.60;;;;;;;;;;5019374;28;20187;-45
2021/04/15 11:14:17;;;;;;;8.77;3.50;;;;;;;;;;5033289;28;20526;-45
2021/04/15 11:16:47;;;;;;;11.45;3.88;;;;;;;;;;5023083;28;20191;-45
2021/04/15 11:19:14;;;;;;;7.22;3.45;;;;;;;;;;5014401;28;20215;-44
2021/04/15 11:21:42;;;;;;;10.43;3.25;;;;;;;;;;5022545;28;20535;-42
2021/04/15 11:24:42;;;;;;;7.30;3.05;;;;;;;;;;5017094;28;20271;-44
2021/04/15 11:27:09;;;;;;;10.02;3.30;;;;;;;;;;4975708;28;20200;-44
2021/04/15 11:29:46;;;;;;;7.85;3.50;;;;;;;;;;5033339;28;20209;-46
2021/04/15 11:32:23;;;;;;;7.70;2.97;;;;;;;;;;5036666;28;20551;-47
2021/04/15 11:35:04;;;;;;;6.63;3.40;;;;;;;;;;5030378;28;20328;-45
2021/04/15 11:37:31;;;;;;;9.00;3.30;;;;;;;;;;5024283;28;20200;-44
2021/04/15 11:40:15;;;;;;;9.50;3.85;;;;;;;;;;5008732;28;20200;-45
2021/04/15 11:42:42;;;;;;;8.45;4.00;;;;;;;;;;5016867;28;20481;-45
2021/04/15 11:45:10;;;;;;;10.55;4.53;;;;;;;;;;5024413;28;20266;-41
2021/04/15 11:47:37;;;;;;;12.68;3.65;;;;;;;;;;5030737;28;20198;-43
2021/04/15 11:50:08;;;;;;;10.05;4.00;;;;;;;;;;5017322;28;20318;-43
2021/04/15 11:52:36;;;;;;;10.13;4.07;;;;;;;;;;5021270;28;20189;-43
2021/04/15 11:55:02;;;;;;;10.27;3.95;;;;;;;;;;5032931;28;20180;-42
2021/04/15 11:57:32;;;;;;;10.32;4.40;;;;;;;;;;5036970;28;20198;-44
2021/04/15 12:00:02;;;;;;;8.30;4.30;;;;;;;;;;5036672;28;20200;-42
2021/04/15 12:02:31;;;;;;;13.50;3.88;;;;;;;;;;5032531;28;20249;-42
2021/04/15 12:05:17;;;;;;;8.70;3.17;;;;;;;;;;5030611;28;20241;-42
2021/04/15 12:07:52;;;;;;;6.85;3.17;;;;;;;;;;5029157;28;20181;-43
2021/04/15 12:10:20;;;;;;;17.13;6.18;;;;;;;;;;5030855;28;20453;-42
2021/04/15 12:12:48;;;;;;;11.88;4.75;;;;;;;;;;5016296;28;20239;-42
2021/04/15 12:15:17;;;;;;;10.25;4.63;;;;;;;;;;5022697;28;20208;-42
2021/04/15 12:17:57;;;;;;;8.07;3.97;;;;;;;;;;5034141;28;20184;-42
2021/04/15 12:20:23;;;;;;;10.65;3.78;;;;;;;;;;5034292;28;20183;-43
2021/04/15 12:23:12;;;;;;;8.55;3.70;;;;;;;;;;5023010;28;20184;-43
2021/04/15 12:26:08;;;;;;;10.88;3.97;;;;;;;;;;5035887;28;20279;-43
2021/04/15 12:28:33;;;;;;;11.70;4.35;;;;;;;;;;4949176;28;20214;-42
2021/04/15 12:31:02;;;;;;;10.25;4.13;;;;;;;;;;5016149;28;20441;-43
2021/04/15 12:33:38;;;;;;;13.23;4.57;;;;;;;;;;5016500;28;20200;-43
2021/04/15 12:36:12;;;;;;;9.25;4.40;;;;;;;;;;5017380;28;20199;-43
2021/04/15 12:38:46;;;;;;;9.43;4.57;;;;;;;;;;5025559;28;20207;-43
2021/04/15 12:41:13;;;;;;;10.32;4.40;;;;;;;;;;5022283;28;20740;-42
2021/04/15 12:43:40;;;;;;;9.50;4.00;;;;;;;;;;5016468;28;20172;-42
2021/04/15 12:46:12;;;;;;;8.10;3.92;;;;;;;;;;5019850;28;20164;-42
2021/04/15 12:48:43;;;;;;;8.60;4.00;;;;;;;;;;5034835;28;20181;-42
2021/04/15 12:51:11;;;;;;;11.38;4.03;;;;;;;;;;5018285;28;20184;-42
2021/04/15 12:53:39;;;;;;;9.45;4.07;;;;;;;;;;5016186;28;20188;-43
2021/04/15 12:56:05;;;;;;;6.63;3.60;;;;;;;;;;5016250;28;20210;-43
2021/04/15 12:58:32;;;;;;;7.13;3.08;;;;;;;;;;5015792;28;20579;-43
2021/04/15 13:00:59;;;;;;;6.75;3.00;;;;;;;;;;5015397;28;20267;-42
2021/04/15 13:03:27;;;;;;;7.20;3.20;;;;;;;;;;5019782;28;20196;-42
2021/04/15 13:05:58;;;;;;;7.72;3.28;;;;;;;;;;5028699;28;20172;-43
2021/04/15 13:08:36;;;;;;;6.00;3.08;;;;;;;;;;5025170;28;20208;-42
2021/04/15 13:11:17;;;;;;;5.10;3.00;;;;;;;;;;5043512;28;20479;-42
2021/04/15 13:13:47;;;;;;;4.65;2.42;;;;;;;;;;5035577;28;20262;-42
2021/04/15 13:16:35;;;;;;;5.80;2.55;;;;;;;;;;5025078;28;20172;-43
2021/04/15 13:19:01;;;;;;;5.32;2.53;;;;;;;;;;5019734;28;20184;-43
2021/04/15 13:21:32;;;;;;;5.53;2.85;;;;;;;;;;5027108;28;20203;-42
2021/04/15 13:23:59;;;;;;;4.50;2.63;;;;;;;;;;5022254;28;20219;-42
2021/04/15 13:26:31;;;;;;;4.18;2.25;;;;;;;;;;5015400;28;20513;-42
2021/04/15 13:29:02;;;;;;;4.20;2.30;;;;;;;;;;5035178;28;20172;-42
2021/04/15 13:31:54;;;;;;;3.85;2.03;;;;;;;;;;5034038;28;20203;-42
2021/04/15 13:34:29;;;;;;;5.82;2.13;;;;;;;;;;5017309;28;20220;-42
2021/04/15 13:37:18;;;;;;;5.10;2.35;;;;;;;;;;5021200;28;20200;-42
2021/04/15 13:39:46;;;;;;;5.78;2.03;;;;;;;;;;5010405;28;20220;-42
2021/04/15 13:42:32;;;;;;;6.43;2.20;;;;;;;;;;5014450;28;20181;-42
2021/04/15 13:45:03;;;;;;;3.92;2.08;;;;;;;;;;5005412;28;20275;-42
2021/04/15 13:47:41;;;;;;;3.47;2.03;;;;;;;;;;5018782;28;20173;-42
2021/04/15 13:50:07;;;;;;;3.05;2.03;;;;;;;;;;5012054;28;20204;-42
2021/04/15 13:52:36;;;;;;;2.88;1.92;;;;;;;;;;5027407;28;20420;-42
2021/04/15 13:55:21;;;;;;;3.92;1.80;;;;;;;;;;5018470;28;20200;-42
2021/04/15 13:57:47;;;;;;;6.72;2.35;;;;;;;;;;5018289;28;20219;-43
2021/04/15 14:00:14;;;;;;;3.10;1.67;;;;;;;;;;5022220;28;20176;-42
2021/04/15 14:02:50;;;;;;;4.25;2.00;;;;;;;;;;5033405;28;20259;-42
2021/04/15 14:05:37;;;;;;;5.45;1.85;;;;;;;;;;5034396;28;20172;-42
2021/04/15 14:08:18;;;;;;;2.35;1.70;;;;;;;;;;5016258;28;20203;-42
2021/04/15 14:10:44;;;;;;;3.78;1.70;;;;;;;;;;5018271;28;20332;-42
2021/04/15 14:13:19;;;;;;;3.42;1.67;;;;;;;;;;5033141;28;20263;-42
2021/04/15 14:15:48;;;;;;;3.72;1.77;;;;;;;;;;5030668;28;20261;-42
2021/04/15 14:18:23;;;;;;;1.98;1.55;;;;;;;;;;5033014;28;20618;-42
2021/04/15 14:20:52;;;;;;;3.17;1.70;;;;;;;;;;5032544;28;20237;-42
2021/04/15 14:23:54;;;;;;;3.35;1.83;;;;;;;;;;5028714;28;20179;-42
2021/04/15 14:26:20;;;;;;;3.55;1.73;;;;;;;;;;4936656;29;20253;-42
2021/04/15 14:28:46;;;;;;;6.82;1.88;;;;;;;;;;5007345;28;20195;-42
2021/04/15 14:31:14;;;;;;;2.03;1.50;;;;;;;;;;5014291;28;20176;-43
2021/04/15 14:33:40;;;;;;;3.50;1.85;;;;;;;;;;5014556;28;20256;-43
2021/04/15 14:36:06;;;;;;;2.33;1.30;;;;;;;;;;5014871;28;20230;-43
2021/04/15 14:38:34;;;;;;;2.72;1.30;;;;;;;;;;5014498;28;20231;-43
2021/04/15 14:41:03;;;;;;;1.92;1.20;;;;;;;;;;5021405;28;20195;-42
2021/04/15 14:43:33;;;;;;;2.33;1.40;;;;;;;;;;5030961;28;20203;-43
2021/04/15 14:46:10;;;;;;;2.08;1.30;;;;;;;;;;5020888;28;20436;-43
2021/04/15 14:48:36;;;;;;;2.15;1.30;;;;;;;;;;5014670;28;20180;-43
2021/04/15 14:51:07;;;;;;;2.83;1.40;;;;;;;;;;5035364;28;20454;-43
2021/04/15 14:53:33;;;;;;;2.45;1.50;;;;;;;;;;5034143;28;20522;-43
2021/04/15 14:56:20;;;;;;;1.65;1.20;;;;;;;;;;5032359;28;20200;-42
2021/04/15 14:58:46;;;;;;;2.40;1.30;;;;;;;;;;5029633;28;20187;-42
2021/04/15 15:01:15;;;;;;;2.28;1.20;;;;;;;;;;5032951;28;20175;-42
2021/04/15 15:03:42;;;;;;;3.47;1.17;;;;;;;;;;5024908;28;20259;-42
2021/04/15 15:06:10;;;;;;;1.65;1.00;;;;;;;;;;5018367;28;20599;-42
2021/04/15 15:08:43;;;;;;;3.03;1.17;;;;;;;;;;5018093;28;20172;-42
2021/04/15 15:11:10;;;;;;;1.73;1.10;;;;;;;;;;5025176;28;20176;-42
2021/04/15 15:13:38;;;;;;;2.22;1.23;;;;;;;;;;5023640;28;20204;-42